KHGR/HGR METAR and TAF weather

Enter ICAO airport designator
Station Type Date Time Source
KHGR METAR 2021/04/14 18:53 UTC NOAA

KHGR 141853Z 00000KT 10SM FEW047 BKN090 14/11 A2999 RMK AO2 RAE34 SLP166 P0000 T01440106


Station Type Date Time Source
KHGR Decoded METAR 2021/04/14 18:53 UTC NOAA

HAGERSTOWN REGIONAL AIRPORT, MD, United States (KHGR) 39-42N 077-44W 224M
Apr 14, 2021 - 02:53 PM EDT / 2021.04.14 1853 UTC
Wind: Calm:0
Visibility: 10 mile(s):0
Sky conditions: mostly cloudy
Precipitation last hour: A trace
Temperature: 57.9 F (14.4 C)
Dew Point: 51.1 F (10.6 C)
Relative Humidity: 77%
Pressure (altimeter): 29.99 in. Hg (1015 hPa)
ob: KHGR 141853Z 00000KT 10SM FEW047 BKN090 14/11 A2999 RMK AO2 RAE34 SLP166 P0000 T01440106
cycle: 19

Station Type Date Time Source
KHGR TAF UTC NOAA

Error!

Example: see airport list